Time;durP1;ratioP1;P1;durP2;ratioP2;P2;SDS_P1;SDS_P2;PMS_P1;PMS_P2;Temp;Humidity;BMP_temperature;BMP_pressure;BME280_temperature;BME280_humidity;BME280_pressure;Samples;Min_cycle;Max_cycle;Signal;HPM_P1;HPM_P2
2021/10/16 00:00:41;;;;;;;4.60;3.05;;;14.90;63.90;;;;;;6276075;22;20427;-67
2021/10/16 00:03:07;;;;;;;6.07;3.20;;;14.90;64.00;;;;;;6276110;22;20000;-68
2021/10/16 00:05:32;;;;;;;4.30;2.88;;;14.90;64.10;;;;;;6274404;22;20453;-67
2021/10/16 00:07:58;;;;;;;6.45;3.17;;;14.90;64.10;;;;;;6276088;22;20069;-69
2021/10/16 00:10:24;;;;;;;5.93;3.38;;;14.90;64.10;;;;;;6276067;22;20359;-67
2021/10/16 00:12:50;;;;;;;4.28;3.00;;;14.90;64.20;;;;;;6275749;22;20011;-67
2021/10/16 00:15:16;;;;;;;4.60;2.83;;;14.90;64.20;;;;;;6276055;22;20015;-68
2021/10/16 00:17:42;;;;;;;4.90;2.90;;;14.90;64.30;;;;;;6275992;22;19999;-69
2021/10/16 00:20:09;;;;;;;5.97;2.97;;;14.90;64.30;;;;;;6276034;22;20482;-67
2021/10/16 00:22:35;;;;;;;4.53;3.42;;;14.90;64.30;;;;;;6275636;22;20003;-67
2021/10/16 00:25:01;;;;;;;5.60;3.05;;;14.90;64.30;;;;;;6276274;22;19999;-66
2021/10/16 00:27:27;;;;;;;5.25;3.20;;;14.90;64.40;;;;;;6275867;22;20114;-66
2021/10/16 00:29:53;;;;;;;5.90;2.75;;;14.90;64.40;;;;;;6275900;22;20327;-67
2021/10/16 00:32:18;;;;;;;5.55;3.58;;;14.90;64.50;;;;;;6275973;22;20000;-67
2021/10/16 00:34:44;;;;;;;6.07;2.95;;;14.90;64.60;;;;;;6275824;22;20004;-67
2021/10/16 00:37:10;;;;;;;6.05;3.20;;;14.90;65.30;;;;;;6275892;22;20046;-68
2021/10/16 00:39:36;;;;;;;4.75;3.05;;;14.90;64.40;;;;;;6275989;22;20015;-67
2021/10/16 00:42:03;;;;;;;4.70;3.28;;;14.90;64.30;;;;;;6275807;22;20004;-67
2021/10/16 00:44:29;;;;;;;5.72;2.95;;;14.90;64.30;;;;;;6276132;22;20007;-67
2021/10/16 00:46:57;;;;;;;5.28;3.42;;;14.90;64.30;;;;;;6275750;22;20004;-68
2021/10/16 00:49:24;;;;;;;3.90;3.00;;;14.90;64.30;;;;;;6275821;22;20420;-67
2021/10/16 00:51:50;;;;;;;5.45;3.55;;;14.90;64.40;;;;;;6275711;22;19995;-66
2021/10/16 00:54:16;;;;;;;4.22;2.83;;;14.90;64.30;;;;;;6275597;22;20462;-67
2021/10/16 00:56:43;;;;;;;4.40;3.20;;;14.90;64.40;;;;;;6275699;22;20000;-66
2021/10/16 00:59:10;;;;;;;6.63;2.88;;;14.90;64.40;;;;;;6275861;22;20003;-67
2021/10/16 01:01:37;;;;;;;5.95;3.75;;;14.90;64.40;;;;;;6275717;22;20008;-67
2021/10/16 01:04:04;;;;;;;5.60;3.47;;;14.90;64.60;;;;;;6275497;22;20008;-68
2021/10/16 01:06:31;;;;;;;3.53;3.10;;;14.90;64.60;;;;;;6275218;22;19996;-68
2021/10/16 01:08:58;;;;;;;5.03;3.08;;;14.90;64.60;;;;;;6275515;22;20414;-67
2021/10/16 01:11:51;;;;;;;3.95;2.63;;;14.90;64.60;;;;;;6275305;22;19996;-68
2021/10/16 01:14:18;;;;;;;5.20;2.85;;;14.90;64.70;;;;;;6263624;22;20015;-67
2021/10/16 01:16:46;;;;;;;3.72;2.78;;;14.90;64.60;;;;;;6275572;22;20173;-67
2021/10/16 01:19:14;;;;;;;3.42;2.60;;;14.90;64.70;;;;;;6275434;22;20419;-68
2021/10/16 01:21:45;;;;;;;4.70;3.30;;;15.00;64.80;;;;;;6275500;22;20004;-68
2021/10/16 01:24:12;;;;;;;5.40;3.50;;;14.90;64.80;;;;;;6275367;22;20004;-68
2021/10/16 01:26:41;;;;;;;6.68;4.03;;;14.90;64.80;;;;;;6275262;22;19996;-67
2021/10/16 01:29:13;;;;;;;6.63;3.85;;;14.90;64.60;;;;;;6275498;22;20328;-68
2021/10/16 01:31:40;;;;;;;5.85;3.47;;;14.90;64.60;;;;;;6275640;22;20000;-68
2021/10/16 01:34:07;;;;;;;7.50;3.90;;;14.90;64.60;;;;;;6276140;22;20003;-68
2021/10/16 01:36:43;;;;;;;8.90;4.93;;;14.80;64.50;;;;;;6277366;22;20000;-68
2021/10/16 01:39:10;;;;;;;6.10;3.83;;;14.80;64.60;;;;;;6277436;22;20003;-66
2021/10/16 01:41:36;;;;;;;5.47;3.70;;;14.80;64.70;;;;;;6277286;22;20000;-65
2021/10/16 01:44:06;;;;;;;4.28;3.42;;;14.80;64.80;;;;;;6275597;22;20378;-66
2021/10/16 01:46:33;;;;;;;5.90;3.65;;;14.70;64.80;;;;;;6277220;22;20014;-67
2021/10/16 01:49:05;;;;;;;4.80;3.63;;;14.70;64.90;;;;;;6277331;22;19996;-67
2021/10/16 01:51:31;;;;;;;4.88;3.10;;;14.70;64.90;;;;;;6277305;22;19995;-66
2021/10/16 01:53:57;;;;;;;4.75;3.30;;;14.70;64.90;;;;;;6277192;22;20000;-67
2021/10/16 01:56:22;;;;;;;4.53;3.10;;;14.70;65.00;;;;;;6277185;22;19996;-67
2021/10/16 01:58:48;;;;;;;6.30;3.30;;;14.70;64.90;;;;;;6277135;22;20007;-66
2021/10/16 02:01:14;;;;;;;6.50;3.75;;;14.70;65.00;;;;;;6277065;22;20052;-67
2021/10/16 02:03:40;;;;;;;4.85;3.45;;;14.80;65.20;;;;;;6275415;22;20106;-66
2021/10/16 02:06:06;;;;;;;5.95;3.17;;;14.80;65.20;;;;;;6277094;22;20113;-66
2021/10/16 02:08:32;;;;;;;6.20;3.42;;;14.80;65.10;;;;;;6277060;22;20023;-67
2021/10/16 02:10:57;;;;;;;5.50;3.20;;;14.80;65.20;;;;;;6277095;22;20007;-66
2021/10/16 02:13:23;;;;;;;6.20;3.53;;;14.80;65.10;;;;;;6276851;22;20015;-66
2021/10/16 02:15:49;;;;;;;5.65;3.10;;;14.80;65.10;;;;;;6277061;22;20521;-67
2021/10/16 02:18:14;;;;;;;6.47;2.88;;;14.90;65.20;;;;;;6276919;22;19996;-67
2021/10/16 02:20:40;;;;;;;5.88;3.50;;;14.90;65.10;;;;;;6276817;22;20031;-68
2021/10/16 02:23:06;;;;;;;5.25;3.28;;;14.90;65.10;;;;;;6276911;22;19992;-68
2021/10/16 02:25:31;;;;;;;6.20;3.75;;;14.90;65.00;;;;;;6276810;22;20011;-69
2021/10/16 02:27:57;;;;;;;5.65;3.25;;;14.90;65.00;;;;;;6276892;22;20006;-67
2021/10/16 02:30:23;;;;;;;5.07;3.22;;;14.90;64.90;;;;;;6276944;22;20324;-68
2021/10/16 02:32:49;;;;;;;13.25;3.75;;;14.90;64.90;;;;;;6276812;22;20458;-67
2021/10/16 02:35:14;;;;;;;6.50;3.60;;;14.90;64.90;;;;;;6276795;22;20000;-68
2021/10/16 02:37:40;;;;;;;7.70;4.30;;;14.90;65.00;;;;;;6275191;22;20008;-68
2021/10/16 02:40:07;;;;;;;10.02;3.92;;;14.80;65.00;;;;;;6276821;22;20431;-68
2021/10/16 02:42:32;;;;;;;6.75;3.72;;;14.80;65.00;;;;;;6275248;22;20082;-67
2021/10/16 02:44:58;;;;;;;5.30;3.45;;;14.80;65.00;;;;;;6276430;22;20051;-68
2021/10/16 02:47:27;;;;;;;4.70;3.20;;;14.80;65.10;;;;;;6276734;22;20023;-66
2021/10/16 02:49:53;;;;;;;5.13;3.67;;;14.80;65.10;;;;;;6276613;22;20006;-68
2021/10/16 02:52:18;;;;;;;7.55;3.28;;;14.80;65.10;;;;;;6276641;22;20027;-67
2021/10/16 02:54:44;;;;;;;7.38;3.50;;;14.80;65.10;;;;;;6276628;22;20007;-68
2021/10/16 02:57:10;;;;;;;4.25;2.78;;;14.80;65.00;;;;;;6276674;22;20447;-67
2021/10/16 02:59:35;;;;;;;4.97;3.17;;;14.80;65.10;;;;;;6276683;22;20007;-68
2021/10/16 03:02:01;;;;;;;4.28;2.75;;;14.80;65.10;;;;;;6276630;22;20004;-68
2021/10/16 03:04:27;;;;;;;4.07;2.58;;;14.80;65.20;;;;;;6276534;22;20011;-67
2021/10/16 03:06:53;;;;;;;3.33;2.60;;;14.80;65.20;;;;;;6276580;22;20000;-67
2021/10/16 03:09:18;;;;;;;5.60;3.22;;;14.80;65.30;;;;;;6276507;22;19995;-67
2021/10/16 03:11:44;;;;;;;6.97;3.70;;;14.80;65.30;;;;;;6276288;22;20398;-68
2021/10/16 03:14:10;;;;;;;4.78;3.47;;;14.80;65.40;;;;;;6276634;22;20026;-68
2021/10/16 03:16:36;;;;;;;5.78;3.47;;;14.80;65.40;;;;;;6275050;22;20114;-67
2021/10/16 03:19:02;;;;;;;6.07;3.60;;;14.80;65.30;;;;;;6276486;22;19996;-67
2021/10/16 03:21:27;;;;;;;4.03;3.25;;;14.80;65.40;;;;;;6276458;22;20125;-68
2021/10/16 03:23:53;;;;;;;5.85;3.63;;;14.80;65.50;;;;;;6276317;22;20040;-67
2021/10/16 03:26:19;;;;;;;6.40;3.20;;;14.80;65.40;;;;;;6276259;22;19996;-68
2021/10/16 03:28:45;;;;;;;7.55;3.40;;;14.80;65.40;;;;;;6276266;22;20000;-67
2021/10/16 03:31:10;;;;;;;11.65;3.55;;;14.80;65.40;;;;;;6276232;22;20366;-67
2021/10/16 03:33:36;;;;;;;5.30;3.17;;;14.80;65.40;;;;;;6276284;22;20416;-67
2021/10/16 03:36:02;;;;;;;4.90;2.92;;;14.80;65.40;;;;;;6276195;22;20000;-68
2021/10/16 03:38:28;;;;;;;2.88;2.33;;;14.80;65.50;;;;;;6276271;22;20027;-69
2021/10/16 03:40:54;;;;;;;6.20;3.15;;;14.80;65.50;;;;;;6276131;22;19995;-68
2021/10/16 03:43:20;;;;;;;7.78;3.47;;;14.80;65.60;;;;;;6276201;22;19999;-66
2021/10/16 03:45:45;;;;;;;5.60;3.28;;;14.70;65.60;;;;;;6274447;22;20004;-67
2021/10/16 03:48:12;;;;;;;4.47;2.80;;;14.80;65.70;;;;;;6274603;22;20339;-68
2021/10/16 03:50:37;;;;;;;8.55;3.83;;;14.70;65.60;;;;;;6276024;22;20015;-68
2021/10/16 03:53:03;;;;;;;7.20;3.58;;;14.70;65.70;;;;;;6276110;22;19995;-68
2021/10/16 03:55:29;;;;;;;5.40;3.33;;;14.70;65.80;;;;;;6276128;22;20000;-68
2021/10/16 03:57:55;;;;;;;6.60;3.20;;;14.70;65.70;;;;;;6275586;22;19995;-67
2021/10/16 04:00:20;;;;;;;4.88;3.17;;;14.70;65.80;;;;;;6276035;22;20007;-67
2021/10/16 04:02:50;;;;;;;16.77;3.55;;;14.70;65.70;;;;;;6276022;22;20010;-67
2021/10/16 04:05:16;;;;;;;17.65;3.70;;;14.70;65.80;;;;;;6275978;22;20066;-67
2021/10/16 04:07:42;;;;;;;15.25;4.28;;;14.70;65.80;;;;;;6276048;22;20424;-68
2021/10/16 04:10:08;;;;;;;5.28;3.03;;;14.70;65.80;;;;;;6276039;22;20015;-67
2021/10/16 04:12:34;;;;;;;13.70;3.88;;;14.70;65.80;;;;;;6275766;22;20348;-67
2021/10/16 04:15:00;;;;;;;6.40;3.30;;;14.70;65.80;;;;;;6275981;22;20083;-67
2021/10/16 04:17:26;;;;;;;4.57;2.78;;;14.70;65.80;;;;;;6275995;22;20081;-67
2021/10/16 04:19:52;;;;;;;8.00;3.10;;;14.70;65.80;;;;;;6275923;22;20423;-67
2021/10/16 04:22:18;;;;;;;6.00;3.00;;;14.70;65.80;;;;;;6275904;22;20030;-67
2021/10/16 04:24:44;;;;;;;8.05;3.40;;;14.70;65.80;;;;;;6275588;22;20082;-67
2021/10/16 04:27:11;;;;;;;12.05;3.90;;;14.60;65.70;;;;;;6275864;22;20006;-66
2021/10/16 04:29:37;;;;;;;12.52;3.85;;;14.60;65.70;;;;;;6275874;22;20000;-67
2021/10/16 04:32:03;;;;;;;10.13;3.60;;;14.60;65.80;;;;;;6276012;22;20002;-68
2021/10/16 04:34:32;;;;;;;16.35;3.63;;;14.60;65.80;;;;;;6276101;22;19999;-67
2021/10/16 04:36:57;;;;;;;11.45;3.90;;;14.60;65.90;;;;;;6276101;22;20006;-67
2021/10/16 04:39:25;;;;;;;4.75;2.97;;;14.60;66.00;;;;;;6276019;22;20082;-68
2021/10/16 04:41:51;;;;;;;9.43;3.63;;;14.60;65.90;;;;;;6276025;22;20007;-68
2021/10/16 04:44:17;;;;;;;4.90;2.90;;;14.60;65.80;;;;;;6275680;22;20004;-67
2021/10/16 04:46:43;;;;;;;7.15;3.65;;;14.50;65.70;;;;;;6275869;22;20007;-68
2021/10/16 04:49:12;;;;;;;6.18;3.30;;;14.50;65.70;;;;;;6275735;22;19992;-67
2021/10/16 04:51:37;;;;;;;10.63;3.45;;;14.50;65.60;;;;;;6274307;22;20335;-68
2021/10/16 04:54:03;;;;;;;12.88;3.67;;;14.50;65.50;;;;;;6275744;22;19999;-67
2021/10/16 04:56:29;;;;;;;4.55;3.22;;;14.50;65.50;;;;;;6275795;22;19995;-67
2021/10/16 04:58:55;;;;;;;7.43;3.30;;;14.50;65.50;;;;;;6275771;22;20027;-67
2021/10/16 05:01:21;;;;;;;6.22;3.00;;;14.50;65.50;;;;;;6275669;22;19999;-68
2021/10/16 05:03:46;;;;;;;8.00;3.08;;;14.50;65.30;;;;;;6275613;22;20007;-68
2021/10/16 05:06:12;;;;;;;5.82;2.92;;;14.50;65.30;;;;;;6275603;22;20034;-67
2021/10/16 05:08:38;;;;;;;8.63;3.70;;;14.40;65.00;;;;;;6275667;22;20061;-68
2021/10/16 05:11:04;;;;;;;10.85;3.60;;;14.40;65.10;;;;;;6277784;22;20457;-67
2021/10/16 05:13:29;;;;;;;8.02;3.60;;;14.40;65.00;;;;;;6277396;22;20035;-67
2021/10/16 05:15:55;;;;;;;4.28;2.97;;;14.40;65.00;;;;;;6277649;22;20024;-67
2021/10/16 05:18:24;;;;;;;7.25;4.97;;;14.30;64.80;;;;;;6277546;22;20023;-67
2021/10/16 05:20:50;;;;;;;10.10;5.15;;;14.30;64.80;;;;;;6277592;22;20023;-67
2021/10/16 05:23:16;;;;;;;8.10;4.85;;;14.20;64.90;;;;;;6277937;22;20000;-67
2021/10/16 05:25:43;;;;;;;7.43;4.82;;;14.20;65.00;;;;;;6277399;22;20000;-68
2021/10/16 05:28:10;;;;;;;9.15;4.30;;;14.20;65.10;;;;;;6277607;22;20004;-67
2021/10/16 05:30:36;;;;;;;10.35;3.42;;;14.10;65.00;;;;;;6277442;22;20080;-67
2021/10/16 05:33:02;;;;;;;5.65;3.67;;;14.10;65.00;;;;;;6277527;22;20019;-68
2021/10/16 05:35:28;;;;;;;4.38;3.05;;;14.10;65.00;;;;;;6275981;22;20061;-67
2021/10/16 05:37:54;;;;;;;4.53;2.90;;;14.10;65.00;;;;;;6277512;22;19999;-67
2021/10/16 05:40:19;;;;;;;8.68;3.40;;;14.00;64.90;;;;;;6277268;22;20034;-68
2021/10/16 05:42:45;;;;;;;5.72;2.95;;;13.90;64.80;;;;;;6277424;22;20010;-67
2021/10/16 05:45:11;;;;;;;7.13;3.60;;;13.90;64.80;;;;;;6277314;22;19999;-66
2021/10/16 05:47:38;;;;;;;7.65;3.22;;;13.90;64.90;;;;;;6277317;22;19999;-68
2021/10/16 05:50:05;;;;;;;7.55;3.13;;;13.80;64.80;;;;;;6277384;22;20023;-67
2021/10/16 05:52:31;;;;;;;8.20;3.15;;;13.80;64.80;;;;;;6277186;22;19999;-67
2021/10/16 05:54:56;;;;;;;9.85;3.95;;;13.70;64.80;;;;;;6277216;22;20434;-68
2021/10/16 05:57:22;;;;;;;6.75;2.90;;;13.70;65.10;;;;;;6277216;22;20004;-67
2021/10/16 05:59:48;;;;;;;6.03;2.85;;;13.70;65.10;;;;;;6277380;22;19996;-66
2021/10/16 06:02:13;;;;;;;12.85;3.08;;;13.60;65.00;;;;;;6277225;22;20007;-68
2021/10/16 06:04:39;;;;;;;11.80;3.17;;;13.60;65.10;;;;;;6277095;22;20004;-68
2021/10/16 06:07:05;;;;;;;6.53;3.63;;;13.60;65.30;;;;;;6277901;22;20457;-67
2021/10/16 06:09:31;;;;;;;9.00;3.45;;;13.60;65.40;;;;;;6277150;22;20049;-67
2021/10/16 06:11:57;;;;;;;11.32;3.65;;;13.60;65.50;;;;;;6276609;22;20016;-68
2021/10/16 06:14:23;;;;;;;17.95;5.57;;;13.60;65.50;;;;;;6276977;22;20004;-67
2021/10/16 06:16:48;;;;;;;11.88;4.88;;;13.60;65.80;;;;;;6277073;22;20006;-67
2021/10/16 06:19:14;;;;;;;7.25;4.13;;;13.60;66.00;;;;;;6277036;22;20427;-68
2021/10/16 06:21:40;;;;;;;14.25;4.57;;;13.60;66.20;;;;;;6276511;22;19999;-67
2021/10/16 06:24:06;;;;;;;9.32;4.65;;;13.60;66.30;;;;;;6276913;22;20008;-67
2021/10/16 06:26:31;;;;;;;9.55;3.90;;;13.70;66.40;;;;;;6276917;22;20364;-68
2021/10/16 06:28:57;;;;;;;8.65;4.20;;;13.70;66.50;;;;;;6277078;22;20002;-67
2021/10/16 06:31:23;;;;;;;8.82;4.13;;;13.80;66.60;;;;;;6276951;22;19995;-67
2021/10/16 06:33:48;;;;;;;11.40;4.00;;;13.80;66.50;;;;;;6276930;22;20003;-68
2021/10/16 06:36:14;;;;;;;9.30;4.28;;;13.80;66.40;;;;;;6275252;22;20003;-68
2021/10/16 06:38:40;;;;;;;8.35;3.85;;;13.90;66.40;;;;;;6276864;22;20000;-67
2021/10/16 06:41:06;;;;;;;6.07;3.30;;;13.90;66.40;;;;;;6275117;22;20086;-67
2021/10/16 06:43:32;;;;;;;9.10;4.03;;;14.00;66.40;;;;;;6276784;22;20331;-67
2021/10/16 06:45:57;;;;;;;12.25;3.97;;;14.00;66.40;;;;;;6275204;22;20004;-66
2021/10/16 06:48:23;;;;;;;5.18;3.53;;;14.00;66.10;;;;;;6276714;22;20317;-66
2021/10/16 06:50:49;;;;;;;7.65;3.67;;;14.10;66.10;;;;;;6276789;22;19996;-67
2021/10/16 06:53:15;;;;;;;6.95;3.95;;;14.00;65.90;;;;;;6276785;22;20327;-69
2021/10/16 06:55:41;;;;;;;6.57;4.22;;;14.10;65.70;;;;;;6276665;22;19999;-65
2021/10/16 06:58:06;;;;;;;5.13;3.58;;;14.10;65.60;;;;;;6276470;22;20063;-67
2021/10/16 07:00:32;;;;;;;4.53;3.20;;;14.10;65.60;;;;;;6276655;22;20031;-68
2021/10/16 07:02:58;;;;;;;5.20;3.13;;;14.10;65.50;;;;;;6276746;22;20071;-67
2021/10/16 07:05:24;;;;;;;4.45;2.92;;;14.10;65.30;;;;;;6276635;22;20034;-68
2021/10/16 07:07:50;;;;;;;6.32;3.22;;;14.10;65.30;;;;;;6276568;22;20000;-68
2021/10/16 07:10:15;;;;;;;7.07;3.45;;;14.10;65.40;;;;;;6274568;22;20434;-68
2021/10/16 07:12:41;;;;;;;6.88;2.97;;;14.10;65.60;;;;;;6276113;22;20012;-68
2021/10/16 07:15:08;;;;;;;10.20;3.55;;;14.20;66.00;;;;;;6276543;22;20008;-66
2021/10/16 07:17:33;;;;;;;5.28;3.30;;;14.20;65.50;;;;;;6276494;22;20003;-68
2021/10/16 07:19:59;;;;;;;4.65;3.47;;;14.30;65.20;;;;;;6276326;22;20007;-68
2021/10/16 07:22:25;;;;;;;7.85;3.20;;;14.40;65.30;;;;;;6276388;22;20000;-67
2021/10/16 07:24:51;;;;;;;6.10;2.78;;;14.50;65.40;;;;;;6276287;22;20025;-67
2021/10/16 07:27:17;;;;;;;4.93;2.75;;;14.70;65.30;;;;;;6276265;22;19996;-67
2021/10/16 07:29:43;;;;;;;6.88;3.40;;;14.80;64.60;;;;;;6276381;22;20327;-67
2021/10/16 07:32:09;;;;;;;5.20;3.20;;;14.90;62.70;;;;;;6276065;22;20008;-68
2021/10/16 07:34:35;;;;;;;4.28;2.70;;;15.00;60.30;;;;;;6276303;22;20003;-66
2021/10/16 07:37:01;;;;;;;3.13;2.33;;;15.10;59.30;;;;;;6276202;22;20000;-68
2021/10/16 07:39:26;;;;;;;3.42;2.60;;;15.20;58.50;;;;;;6276162;22;20007;-67
2021/10/16 07:41:52;;;;;;;5.47;3.38;;;15.30;58.60;;;;;;6276208;22;20010;-68
2021/10/16 07:44:18;;;;;;;4.13;2.80;;;15.40;58.10;;;;;;6275896;22;20374;-68
2021/10/16 07:46:45;;;;;;;3.92;2.95;;;15.40;57.90;;;;;;6276173;22;19996;-67
2021/10/16 07:49:11;;;;;;;5.30;3.42;;;15.50;57.30;;;;;;6276125;22;19995;-68
2021/10/16 07:51:37;;;;;;;6.82;3.22;;;15.50;57.30;;;;;;6275971;22;20479;-68
2021/10/16 07:54:03;;;;;;;4.63;2.40;;;15.60;57.20;;;;;;6276013;22;19992;-67
2021/10/16 07:56:29;;;;;;;2.95;2.50;;;15.70;57.90;;;;;;6276017;22;20061;-67
2021/10/16 07:58:56;;;;;;;2.97;2.40;;;15.80;58.00;;;;;;6276097;22;20004;-67
2021/10/16 08:01:22;;;;;;;5.20;2.92;;;15.90;57.90;;;;;;6275956;22;20105;-66
2021/10/16 08:03:48;;;;;;;4.50;2.60;;;16.00;57.30;;;;;;6275777;22;20003;-67
2021/10/16 08:06:14;;;;;;;4.88;3.28;;;16.10;57.40;;;;;;6276225;22;19999;-67
2021/10/16 08:08:39;;;;;;;4.43;2.70;;;16.20;57.50;;;;;;6276132;22;20050;-67
2021/10/16 08:11:05;;;;;;;5.20;2.80;;;16.30;56.70;;;;;;6275932;22;20004;-67
2021/10/16 08:13:31;;;;;;;3.30;2.50;;;16.40;55.80;;;;;;6275838;22;20062;-66
2021/10/16 08:15:58;;;;;;;3.65;2.75;;;16.50;56.30;;;;;;6275991;22;19996;-67
2021/10/16 08:18:24;;;;;;;2.53;2.17;;;16.60;56.40;;;;;;6275788;22;20110;-68
2021/10/16 08:20:51;;;;;;;2.42;1.90;;;16.70;56.30;;;;;;6275739;22;20499;-66
2021/10/16 08:23:17;;;;;;;3.92;2.40;;;16.80;56.40;;;;;;6275788;22;19996;-67
2021/10/16 08:25:43;;;;;;;3.15;2.58;;;17.00;56.50;;;;;;6275564;22;20076;-68
2021/10/16 08:28:13;;;;;;;6.38;2.50;;;17.10;55.80;;;;;;6274402;22;20010;-67
2021/10/16 08:30:44;;;;;;;3.85;2.55;;;17.20;55.50;;;;;;6275985;22;20427;-66
2021/10/16 08:33:10;;;;;;;4.40;3.35;;;17.30;55.30;;;;;;6274230;22;20027;-67
2021/10/16 08:35:36;;;;;;;2.40;2.13;;;17.40;54.50;;;;;;6275911;22;20007;-67
2021/10/16 08:38:01;;;;;;;2.40;2.20;;;17.50;54.30;;;;;;6275897;22;20007;-66
2021/10/16 08:40:27;;;;;;;4.05;2.90;;;17.60;54.70;;;;;;6275829;22;20004;-66
2021/10/16 08:42:53;;;;;;;5.43;3.92;;;17.70;54.80;;;;;;6275591;22;20458;-68
2021/10/16 08:45:20;;;;;;;5.00;4.05;;;17.80;54.60;;;;;;6277323;22;20471;-67
2021/10/16 08:47:47;;;;;;;7.90;4.07;;;18.00;54.50;;;;;;6276334;22;20374;-68
2021/10/16 08:50:13;;;;;;;6.18;4.35;;;18.00;53.80;;;;;;6277998;22;20007;-68
2021/10/16 08:52:40;;;;;;;5.07;3.90;;;18.10;53.90;;;;;;6277985;22;20301;-67
2021/10/16 08:55:08;;;;;;;6.45;4.40;;;18.20;53.10;;;;;;6277564;22;20003;-69
2021/10/16 08:57:41;;;;;;;12.43;4.18;;;18.30;52.70;;;;;;6277924;22;20007;-67
2021/10/16 09:00:36;;;;;;;3.80;3.20;;;18.40;52.30;;;;;;6277901;22;19999;-67
2021/10/16 09:03:13;;;;;;;;;;;18.40;52.50;;;;;;6278252;22;20170;-68
2021/10/16 09:05:39;;;;;;;6.20;3.17;;;18.50;54.20;;;;;;6275930;22;19903;-69
2021/10/16 09:08:04;;;;;;;6.00;3.83;;;18.50;52.00;;;;;;6276049;22;20004;-67
2021/10/16 09:10:30;;;;;;;3.90;3.20;;;18.60;51.60;;;;;;6277708;22;20019;-69
2021/10/16 09:12:57;;;;;;;6.93;3.63;;;18.60;51.30;;;;;;6277261;22;20011;-67
2021/10/16 09:15:24;;;;;;;4.10;3.10;;;18.60;51.40;;;;;;6277654;22;20511;-68
2021/10/16 09:18:00;;;;;;;3.72;3.35;;;18.70;51.60;;;;;;6277539;22;20000;-67
2021/10/16 09:20:36;;;;;;;3.75;3.20;;;18.80;51.10;;;;;;6277574;22;20007;-68
2021/10/16 09:23:09;;;;;;;6.95;3.38;;;18.80;50.80;;;;;;6277550;22;20004;-68
2021/10/16 09:25:35;;;;;;;3.88;3.17;;;18.90;51.00;;;;;;6277468;22;20007;-67
2021/10/16 09:28:18;;;;;;;4.00;3.33;;;19.00;50.70;;;;;;6277527;22;19999;-67
2021/10/16 09:30:45;;;;;;;3.88;3.20;;;19.00;49.80;;;;;;6277478;22;19999;-67
2021/10/16 09:33:12;;;;;;;4.00;3.00;;;19.00;50.10;;;;;;6277254;22;20458;-68
2021/10/16 09:35:37;;;;;;;3.75;2.85;;;19.00;49.70;;;;;;6277541;22;20000;-68
2021/10/16 09:38:03;;;;;;;5.03;3.20;;;19.00;49.50;;;;;;6277842;22;20011;-69
2021/10/16 09:40:40;;;;;;;3.78;2.65;;;19.10;49.80;;;;;;6277553;22;20026;-69
2021/10/16 09:43:19;;;;;;;15.63;3.78;;;19.10;49.60;;;;;;6277481;22;20003;-69
2021/10/16 09:45:46;;;;;;;9.40;2.80;;;19.20;48.80;;;;;;6277399;22;20003;-67
2021/10/16 09:48:33;;;;;;;3.17;2.22;;;19.30;48.50;;;;;;6277552;22;20046;-68
2021/10/16 09:51:00;;;;;;;3.80;2.20;;;19.40;48.00;;;;;;6277544;22;20030;-68
2021/10/16 09:53:26;;;;;;;3.08;2.33;;;19.60;48.40;;;;;;6275779;22;20420;-69
2021/10/16 09:55:53;;;;;;;3.22;2.13;;;19.70;48.30;;;;;;6277382;22;20034;-67
2021/10/16 09:58:22;;;;;;;2.30;2.10;;;19.70;47.70;;;;;;6277314;22;20000;-68
2021/10/16 10:00:52;;;;;;;2.50;2.00;;;19.80;47.90;;;;;;6277389;22;20003;-68
2021/10/16 10:03:23;;;;;;;2.80;2.35;;;19.90;47.60;;;;;;6277233;22;20004;-68
2021/10/16 10:05:50;;;;;;;2.92;2.00;;;20.00;46.70;;;;;;6275737;22;20324;-68
2021/10/16 10:08:19;;;;;;;2.90;1.90;;;20.10;46.20;;;;;;6277201;22;19995;-68
2021/10/16 10:10:47;;;;;;;3.03;1.92;;;20.20;45.90;;;;;;6277263;22;20076;-69
2021/10/16 10:13:14;;;;;;;2.33;1.75;;;20.30;46.10;;;;;;6277029;22;20035;-69
2021/10/16 10:15:40;;;;;;;3.30;2.08;;;20.40;46.10;;;;;;6276931;22;20393;-67
2021/10/16 10:20:54;;;;;;;6.80;2.10;;;20.50;44.40;;;;;;6277147;22;20050;-69
2021/10/16 10:23:22;;;;;;;1.80;1.30;;;20.60;44.90;;;;;;6275571;22;19999;-69
2021/10/16 10:25:47;;;;;;;3.40;1.85;;;20.60;44.40;;;;;;6276985;22;20340;-68
2021/10/16 10:28:13;;;;;;;1.95;1.55;;;20.60;44.60;;;;;;6277098;22;20080;-68
2021/10/16 10:30:42;;;;;;;3.28;1.80;;;20.60;44.10;;;;;;6277023;22;20315;-68
2021/10/16 10:33:19;;;;;;;3.72;2.70;;;20.60;44.00;;;;;;6276903;22;20027;-67
2021/10/16 10:35:49;;;;;;;3.83;2.75;;;20.50;44.30;;;;;;6276935;22;20010;-67
2021/10/16 10:38:33;;;;;;;4.97;2.97;;;20.50;44.20;;;;;;6276789;22;20006;-68
2021/10/16 10:41:21;;;;;;;3.22;2.05;;;20.40;43.90;;;;;;6276988;22;20054;-68
2021/10/16 10:43:47;;;;;;;2.55;2.10;;;20.30;44.80;;;;;;6275114;22;20505;-67
2021/10/16 10:46:13;;;;;;;3.55;2.10;;;20.30;44.40;;;;;;6276875;22;20000;-68
2021/10/16 10:48:44;;;;;;;3.00;2.00;;;20.20;43.50;;;;;;6276751;22;20019;-67
2021/10/16 10:51:10;;;;;;;2.85;2.17;;;20.20;43.50;;;;;;6276898;22;20027;-68
2021/10/16 10:53:38;;;;;;;4.40;2.28;;;20.20;44.10;;;;;;6276738;22;20377;-67
2021/10/16 10:56:07;;;;;;;6.15;2.60;;;20.30;44.70;;;;;;6276684;22;20008;-68
2021/10/16 10:59:14;;;;;;;3.60;2.20;;;20.30;44.30;;;;;;6273933;22;20007;-67
2021/10/16 11:01:53;;;;;;;5.50;2.50;;;20.30;45.00;;;;;;6153030;23;20097;-69
2021/10/16 11:04:39;;;;;;;2.63;2.20;;;20.40;44.10;;;;;;6152855;23;20010;-67
2021/10/16 11:07:10;;;;;;;3.75;2.17;;;20.40;44.30;;;;;;6127024;23;20425;-68
2021/10/16 11:09:36;;;;;;;2.75;2.22;;;20.40;43.90;;;;;;6153320;23;20029;-68
2021/10/16 11:12:02;;;;;;;3.15;2.00;;;20.50;44.00;;;;;;6152973;23;20013;-67
2021/10/16 11:14:36;;;;;;;3.20;2.20;;;20.50;44.10;;;;;;6152344;23;20501;-68
2021/10/16 11:17:05;;;;;;;3.72;2.33;;;20.60;44.30;;;;;;6153076;23;20385;-68
2021/10/16 11:19:46;;;;;;;3.42;2.30;;;20.70;44.10;;;;;;6152677;23;20167;-68
2021/10/16 11:22:12;;;;;;;3.33;2.17;;;20.80;43.80;;;;;;6151996;23;20002;-67
2021/10/16 11:24:39;;;;;;;6.97;2.60;;;20.90;43.80;;;;;;6152902;23;20012;-68
2021/10/16 11:27:04;;;;;;;3.50;2.42;;;20.90;42.90;;;;;;6153051;23;20033;-68
2021/10/16 11:29:36;;;;;;;3.38;2.08;;;20.80;43.10;;;;;;6152707;23;20001;-67
2021/10/16 11:32:19;;;;;;;3.70;2.22;;;20.70;43.20;;;;;;6152401;23;20373;-68
2021/10/16 11:34:58;;;;;;;3.22;2.40;;;20.60;43.60;;;;;;6175194;22;20011;-68
2021/10/16 11:37:41;;;;;;;3.17;2.55;;;20.50;43.50;;;;;;6275875;22;20494;-72
2021/10/16 11:40:13;;;;;;;3.22;2.20;;;20.40;43.60;;;;;;6276255;22;20003;-72
2021/10/16 11:43:02;;;;;;;5.60;2.40;;;20.30;43.80;;;;;;6275908;22;20011;-73
2021/10/16 11:45:34;;;;;;;3.28;2.50;;;20.30;44.00;;;;;;6275109;22;20004;-73
2021/10/16 11:48:08;;;;;;;5.30;3.20;;;20.30;44.20;;;;;;6276334;22;20000;-73
2021/10/16 11:50:35;;;;;;;;;;;20.30;43.90;;;;;;6277903;22;19995;-73
2021/10/16 11:53:20;;;;;;;5.35;3.20;;;20.30;44.90;;;;;;6275957;22;19907;-73
2021/10/16 11:55:51;;;;;;;4.20;2.42;;;20.20;43.60;;;;;;6276129;22;20331;-72
2021/10/16 11:58:20;;;;;;;3.47;2.72;;;20.20;43.90;;;;;;6275855;22;20126;-73
2021/10/16 12:01:07;;;;;;;6.95;2.97;;;20.10;44.30;;;;;;6275805;22;20053;-72
2021/10/16 12:03:39;;;;;;;4.50;2.83;;;19.90;44.60;;;;;;6273969;22;20012;-72
2021/10/16 12:06:10;;;;;;;4.05;3.20;;;19.90;45.30;;;;;;6275920;22;20346;-73
2021/10/16 12:08:51;;;;;;;3.15;2.83;;;19.80;44.60;;;;;;6276058;22;20332;-72
2021/10/16 12:11:18;;;;;;;8.02;3.70;;;19.70;45.20;;;;;;6275827;22;20071;-73
2021/10/16 12:14:00;;;;;;;5.72;3.65;;;19.70;45.00;;;;;;6245315;23;20459;-73
2021/10/16 12:16:39;;;;;;;6.13;3.85;;;19.60;45.20;;;;;;6245218;23;20060;-74
2021/10/16 12:19:14;;;;;;;4.93;3.88;;;19.50;45.50;;;;;;6244777;23;20003;-73
2021/10/16 12:21:43;;;;;;;7.82;4.75;;;19.40;45.70;;;;;;6245130;23;19996;-73
2021/10/16 12:24:13;;;;;;;5.32;4.00;;;19.40;45.60;;;;;;6245146;23;20134;-73
2021/10/16 12:26:42;;;;;;;6.10;4.18;;;19.30;45.80;;;;;;6244769;23;19996;-72
2021/10/16 12:29:11;;;;;;;5.70;4.47;;;19.20;46.20;;;;;;6245084;23;20424;-72
2021/10/16 12:31:48;;;;;;;5.82;4.50;;;19.20;46.20;;;;;;6245061;23;20046;-72
2021/10/16 12:34:27;;;;;;;7.53;5.55;;;19.10;46.20;;;;;;6245062;23;19996;-72
2021/10/16 12:37:01;;;;;;;8.52;6.38;;;19.10;46.50;;;;;;6218393;23;20334;-72
2021/10/16 12:39:35;;;;;;;8.73;6.50;;;19.10;46.50;;;;;;6218367;23;20004;-72
2021/10/16 12:42:15;;;;;;;7.47;6.13;;;19.00;46.40;;;;;;6245303;23;20007;-72
2021/10/16 12:44:49;;;;;;;7.93;5.28;;;19.10;46.70;;;;;;6244876;23;20030;-73
2021/10/16 12:47:33;;;;;;;7.63;5.18;;;19.10;46.50;;;;;;6244699;23;20044;-74
2021/10/16 12:50:03;;;;;;;10.85;7.05;;;19.20;46.50;;;;;;6245059;23;20016;-73
2021/10/16 12:52:45;;;;;;;9.63;6.70;;;19.20;46.60;;;;;;6245031;23;20333;-73